createdAt,value
2023-09-27T00:00:09.793Z,4.53
2023-09-27T00:02:40.746Z,5.40
2023-09-27T00:05:11.385Z,5.70
2023-09-27T00:07:42.084Z,4.57
2023-09-27T00:10:11.414Z,5.32
2023-09-27T00:12:39.952Z,5.10
2023-09-27T00:15:09.436Z,5.40
2023-09-27T00:17:37.113Z,5.68
2023-09-27T00:20:06.991Z,5.25
2023-09-27T00:22:34.327Z,5.05
2023-09-27T00:25:02.221Z,5.07
2023-09-27T00:27:29.516Z,5.50
2023-09-27T00:29:56.861Z,5.88
2023-09-27T00:32:24.313Z,5.07
2023-09-27T00:34:51.725Z,6.20
2023-09-27T00:37:18.987Z,5.55
2023-09-27T00:39:46.304Z,5.63
2023-09-27T00:42:14.119Z,5.35
2023-09-27T00:44:41.898Z,5.32
2023-09-27T00:47:09.318Z,5.30
2023-09-27T00:49:37.516Z,5.32
2023-09-27T00:52:05.960Z,5.25
2023-09-27T00:54:35.455Z,6.50
2023-09-27T00:57:04.818Z,5.97
2023-09-27T00:59:32.494Z,7.07
2023-09-27T01:02:00.145Z,6.32
2023-09-27T01:04:27.706Z,5.50
2023-09-27T01:06:55.175Z,6.05
2023-09-27T01:09:22.945Z,5.82
2023-09-27T01:11:50.473Z,5.82
2023-09-27T01:14:18.016Z,6.43
2023-09-27T01:16:45.380Z,5.85
2023-09-27T01:19:13.798Z,6.38
2023-09-27T01:21:41.157Z,6.22
2023-09-27T01:24:10.731Z,5.72
2023-09-27T01:26:38.849Z,5.47
2023-09-27T01:29:07.333Z,5.05
2023-09-27T01:31:35.368Z,5.25
2023-09-27T01:34:02.660Z,5.88
2023-09-27T01:36:30.192Z,6.30
2023-09-27T01:38:57.481Z,5.65
2023-09-27T01:41:24.818Z,5.60
2023-09-27T01:43:52.942Z,5.85
2023-09-27T01:46:20.312Z,5.32
2023-09-27T01:48:49.299Z,6.10
2023-09-27T01:51:16.658Z,5.53
2023-09-27T01:53:44.006Z,5.47
2023-09-27T01:56:11.403Z,5.88
2023-09-27T01:58:38.785Z,5.22
2023-09-27T02:01:06.157Z,6.10
2023-09-27T02:03:34.058Z,6.35
2023-09-27T02:06:02.268Z,5.80
2023-09-27T02:08:29.697Z,6.05
2023-09-27T02:10:57.028Z,6.13
2023-09-27T02:13:24.327Z,6.70
2023-09-27T02:15:51.630Z,5.30
2023-09-27T02:18:18.971Z,6.40
2023-09-27T02:20:46.812Z,7.53
2023-09-27T02:23:14.145Z,5.97
2023-09-27T02:25:41.567Z,6.32
2023-09-27T02:28:09.446Z,5.82
2023-09-27T02:30:36.870Z,7.57
2023-09-27T02:33:04.336Z,6.32
2023-09-27T02:35:31.680Z,6.93
2023-09-27T02:37:59.115Z,7.28
2023-09-27T02:40:26.548Z,7.10
2023-09-27T02:42:55.013Z,6.72
2023-09-27T02:45:22.415Z,7.07
2023-09-27T02:47:49.737Z,7.45
2023-09-27T02:50:17.365Z,7.47
2023-09-27T02:52:45.383Z,7.03
2023-09-27T02:55:13.432Z,6.97
2023-09-27T02:57:41.078Z,6.20
2023-09-27T03:00:09.674Z,6.80
2023-09-27T03:02:38.395Z,7.18
2023-09-27T03:05:08.636Z,7.38
2023-09-27T03:07:36.275Z,7.32
2023-09-27T03:10:05.684Z,7.38
2023-09-27T03:12:33.651Z,7.95
2023-09-27T03:15:01.066Z,7.82
2023-09-27T03:17:28.768Z,6.50
2023-09-27T03:19:56.332Z,6.65
2023-09-27T03:22:23.679Z,6.93
2023-09-27T03:24:52.224Z,6.82
2023-09-27T03:27:19.886Z,7.22
2023-09-27T03:29:48.054Z,6.78
2023-09-27T03:32:15.470Z,6.47
2023-09-27T03:34:42.779Z,7.15
2023-09-27T03:37:10.802Z,7.35
2023-09-27T03:39:38.206Z,6.50
2023-09-27T03:42:05.893Z,7.63
2023-09-27T03:47:04.247Z,6.40
2023-09-27T03:49:31.672Z,7.57
2023-09-27T03:51:59.163Z,6.55
2023-09-27T03:54:26.860Z,7.35
2023-09-27T03:56:55.480Z,7.60
2023-09-27T03:59:23.689Z,6.82
2023-09-27T04:01:52.468Z,6.65
2023-09-27T04:04:20.090Z,5.95
2023-09-27T04:06:47.462Z,7.63
2023-09-27T04:09:15.121Z,7.05
2023-09-27T04:11:42.529Z,6.40
2023-09-27T04:14:10.068Z,6.97
2023-09-27T04:16:37.347Z,6.63
2023-09-27T04:19:04.974Z,6.20
2023-09-27T04:21:32.483Z,6.40
2023-09-27T04:24:00.906Z,6.40
2023-09-27T04:26:28.467Z,6.63
2023-09-27T04:28:55.894Z,6.65
2023-09-27T04:31:23.332Z,6.55
2023-09-27T04:34:02.730Z,7.40
2023-09-27T04:36:31.963Z,7.20
2023-09-27T04:38:59.486Z,7.07
2023-09-27T04:41:26.878Z,7.20
2023-09-27T04:43:54.274Z,7.05
2023-09-27T04:46:21.596Z,6.45
2023-09-27T04:48:48.933Z,7.65
2023-09-27T04:51:16.273Z,7.30
2023-09-27T04:53:43.678Z,6.97
2023-09-27T04:56:13.930Z,8.02
2023-09-27T04:58:44.145Z,7.15
2023-09-27T05:01:12.207Z,6.65
2023-09-27T05:03:40.200Z,7.65
2023-09-27T05:06:08.152Z,8.40
2023-09-27T05:08:35.632Z,7.43
2023-09-27T05:11:03.146Z,7.28
2023-09-27T05:13:30.640Z,7.53
2023-09-27T05:15:58.009Z,6.93
2023-09-27T05:18:25.497Z,7.82
2023-09-27T05:20:52.968Z,7.28
2023-09-27T05:23:20.327Z,6.40
2023-09-27T05:25:48.328Z,7.03
2023-09-27T05:28:16.553Z,7.40
2023-09-27T05:30:44.152Z,7.20
2023-09-27T05:33:11.532Z,7.20
2023-09-27T05:35:38.888Z,7.13
2023-09-27T05:38:06.318Z,6.45
2023-09-27T05:40:33.759Z,7.55
2023-09-27T05:43:03.046Z,7.15
2023-09-27T05:45:30.397Z,6.68
2023-09-27T05:47:57.831Z,7.32
2023-09-27T05:50:25.267Z,8.13
2023-09-27T05:52:53.144Z,6.68
2023-09-27T05:55:21.254Z,7.43
2023-09-27T05:57:50.906Z,7.82
2023-09-27T06:00:27.801Z,5.85
2023-09-27T06:02:55.644Z,7.15
2023-09-27T06:05:23.485Z,6.65
2023-09-27T06:07:51.055Z,7.20
2023-09-27T06:10:18.624Z,7.38
2023-09-27T06:12:46.028Z,8.48
2023-09-27T06:15:14.145Z,7.60
2023-09-27T06:17:43.351Z,7.25
2023-09-27T06:20:17.256Z,7.25
2023-09-27T06:22:46.796Z,6.53
2023-09-27T06:25:14.982Z,7.22
2023-09-27T06:27:43.891Z,7.43
2023-09-27T06:30:12.873Z,7.35
2023-09-27T06:32:40.313Z,8.23
2023-09-27T06:35:13.953Z,6.97
2023-09-27T06:37:44.838Z,7.20
2023-09-27T06:40:17.722Z,6.97
2023-09-27T06:42:46.649Z,6.95
2023-09-27T06:45:14.889Z,6.60
2023-09-27T06:47:43.520Z,7.28
2023-09-27T06:50:11.371Z,7.00
2023-09-27T06:52:41.026Z,7.10
2023-09-27T06:55:13.051Z,7.05
2023-09-27T06:57:53.418Z,6.60
2023-09-27T07:00:25.287Z,6.47
2023-09-27T07:02:53.630Z,6.75
2023-09-27T07:05:25.039Z,7.00
2023-09-27T07:07:54.350Z,6.95
2023-09-27T07:10:24.167Z,6.95
2023-09-27T07:12:51.577Z,6.65
2023-09-27T07:15:20.296Z,5.85
2023-09-27T07:20:35.620Z,5.55
2023-09-27T07:23:07.682Z,5.93
2023-09-27T07:25:38.688Z,5.80
2023-09-27T07:28:07.352Z,6.07
2023-09-27T07:30:35.298Z,5.60
2023-09-27T07:33:12.945Z,5.70
2023-09-27T07:35:45.304Z,5.88
2023-09-27T07:38:13.032Z,5.57
2023-09-27T07:40:40.597Z,6.75
2023-09-27T07:43:08.013Z,6.32
2023-09-27T07:45:37.708Z,5.97
2023-09-27T07:48:05.613Z,5.78
2023-09-27T07:50:35.390Z,6.47
2023-09-27T07:53:07.486Z,5.30
2023-09-27T07:55:44.320Z,4.97
2023-09-27T07:58:13.858Z,6.15
2023-09-27T08:00:42.117Z,5.40
2023-09-27T08:05:47.648Z,6.57
2023-09-27T08:08:15.528Z,6.05
2023-09-27T08:10:48.343Z,6.18
2023-09-27T08:13:17.315Z,6.25
2023-09-27T08:15:48.036Z,7.07
2023-09-27T08:18:16.738Z,6.72
2023-09-27T08:20:44.458Z,7.05
2023-09-27T08:23:12.620Z,6.85
2023-09-27T08:25:40.245Z,7.47
2023-09-27T08:28:08.005Z,6.68
2023-09-27T08:30:35.535Z,7.93
2023-09-27T08:33:03.295Z,7.28
2023-09-27T08:35:31.360Z,7.60
2023-09-27T08:37:59.068Z,7.28
2023-09-27T08:40:26.956Z,7.65
2023-09-27T08:42:59.342Z,8.13
2023-09-27T08:45:28.298Z,8.15
2023-09-27T08:47:56.056Z,7.68
2023-09-27T08:50:25.778Z,8.35
2023-09-27T08:52:53.512Z,7.43
2023-09-27T08:55:21.308Z,7.25
2023-09-27T08:57:51.232Z,7.75
2023-09-27T09:00:22.894Z,7.65
2023-09-27T09:02:58.544Z,7.82
2023-09-27T09:05:29.189Z,7.72
2023-09-27T09:07:58.282Z,8.68
2023-09-27T09:10:25.623Z,8.80
2023-09-27T09:12:53.434Z,7.85
2023-09-27T09:15:48.417Z,9.10
2023-09-27T09:18:30.149Z,10.30
2023-09-27T09:21:00.937Z,9.32
2023-09-27T09:23:35.965Z,9.63
2023-09-27T09:26:11.102Z,10.95
2023-09-27T09:28:58.679Z,10.40
2023-09-27T09:31:28.605Z,10.60
2023-09-27T09:34:12.095Z,10.82
2023-09-27T09:36:39.516Z,9.70
2023-09-27T09:39:18.496Z,9.77
2023-09-27T09:41:50.765Z,10.15
2023-09-27T09:44:23.175Z,7.25
2023-09-27T09:46:52.984Z,7.65
2023-09-27T09:49:21.775Z,6.22
2023-09-27T09:51:51.179Z,6.30
2023-09-27T09:54:29.503Z,6.05
2023-09-27T09:57:10.077Z,5.47
2023-09-27T09:59:57.346Z,6.47
2023-09-27T10:02:28.835Z,5.15
2023-09-27T10:05:00.238Z,5.50
2023-09-27T10:07:29.973Z,5.47
2023-09-27T10:09:58.402Z,5.93
2023-09-27T10:12:27.410Z,5.75
2023-09-27T10:14:55.565Z,5.68
2023-09-27T10:17:24.464Z,5.78
2023-09-27T10:20:14.105Z,4.85
2023-09-27T10:22:44.453Z,4.85
2023-09-27T10:25:28.088Z,5.53
2023-09-27T10:28:09.484Z,5.10
2023-09-27T10:30:42.686Z,5.43
2023-09-27T10:33:16.259Z,5.60
2023-09-27T10:35:43.813Z,6.03
2023-09-27T10:38:12.295Z,5.40
2023-09-27T10:40:47.182Z,5.70
2023-09-27T10:43:36.478Z,6.28
2023-09-27T10:46:05.629Z,4.93
2023-09-27T10:48:33.319Z,7.43
2023-09-27T10:51:00.996Z,5.38
2023-09-27T10:53:28.418Z,6.13
2023-09-27T10:55:56.025Z,5.13
2023-09-27T10:58:23.311Z,5.28
2023-09-27T11:00:52.491Z,5.68
2023-09-27T11:03:20.482Z,4.68
2023-09-27T11:05:48.822Z,4.63
2023-09-27T11:08:26.312Z,4.68
2023-09-27T11:10:57.107Z,5.30
2023-09-27T11:13:25.483Z,6.13
2023-09-27T11:15:53.118Z,5.30
2023-09-27T11:18:20.694Z,4.90
2023-09-27T11:20:48.375Z,5.97
2023-09-27T11:23:15.809Z,5.07
2023-09-27T11:25:44.818Z,5.25
2023-09-27T11:28:18.513Z,4.78
2023-09-27T11:30:46.037Z,5.25
2023-09-27T11:33:18.042Z,5.45
2023-09-27T11:35:50.524Z,4.85
2023-09-27T11:38:18.012Z,4.95
2023-09-27T11:40:46.307Z,4.60
2023-09-27T11:43:14.116Z,5.65
2023-09-27T11:45:46.524Z,4.82
2023-09-27T11:48:14.784Z,4.32
2023-09-27T11:50:42.368Z,5.10
2023-09-27T11:53:10.010Z,4.32
2023-09-27T11:55:37.659Z,4.57
2023-09-27T11:58:04.973Z,4.85
2023-09-27T12:00:33.255Z,4.05
2023-09-27T12:03:00.801Z,4.70
2023-09-27T12:05:28.982Z,4.10
2023-09-27T12:07:56.689Z,5.32
2023-09-27T12:10:24.183Z,3.90
2023-09-27T12:12:51.541Z,4.05
2023-09-27T12:15:18.956Z,4.63
2023-09-27T12:17:46.359Z,4.38
2023-09-27T12:20:32.055Z,4.90
2023-09-27T12:23:05.086Z,4.90
2023-09-27T12:25:34.396Z,5.05
2023-09-27T12:28:02.429Z,4.50
2023-09-27T12:32:57.244Z,4.10
2023-09-27T12:35:24.794Z,4.53
2023-09-27T12:37:52.202Z,4.80
2023-09-27T12:40:19.657Z,5.20
2023-09-27T12:42:47.081Z,4.22
2023-09-27T12:45:14.645Z,4.50
2023-09-27T12:47:42.783Z,5.00
2023-09-27T12:50:10.477Z,4.75
2023-09-27T12:52:38.215Z,4.72
2023-09-27T12:55:06.545Z,4.65
2023-09-27T12:57:34.143Z,3.83
2023-09-27T13:00:02.214Z,4.40
2023-09-27T13:02:32.508Z,4.70
2023-09-27T13:05:00.112Z,3.72
2023-09-27T13:07:28.315Z,4.45
2023-09-27T13:09:55.756Z,4.35
2023-09-27T13:12:23.095Z,4.47
2023-09-27T13:14:50.585Z,4.13
2023-09-27T13:17:18.095Z,3.95
2023-09-27T13:19:46.000Z,3.80
2023-09-27T13:22:13.353Z,3.70
2023-09-27T13:24:42.901Z,3.78
2023-09-27T13:27:10.572Z,4.97
2023-09-27T13:29:40.452Z,4.03
2023-09-27T13:32:07.898Z,4.90
2023-09-27T13:34:36.938Z,3.95
2023-09-27T13:37:04.296Z,4.10
2023-09-27T13:39:31.737Z,4.07
2023-09-27T13:41:59.118Z,4.85
2023-09-27T13:44:27.880Z,4.05
2023-09-27T13:46:55.366Z,3.95
2023-09-27T13:49:22.840Z,4.13
2023-09-27T13:51:50.159Z,4.57
2023-09-27T13:54:17.526Z,4.22
2023-09-27T13:56:44.931Z,4.15
2023-09-27T13:59:12.299Z,4.13
2023-09-27T14:01:40.173Z,4.18
2023-09-27T14:04:08.693Z,4.38
2023-09-27T14:06:36.068Z,4.20
2023-09-27T14:09:03.707Z,4.18
2023-09-27T14:11:31.188Z,3.72
2023-09-27T14:13:58.579Z,3.90
2023-09-27T14:16:26.542Z,4.22
2023-09-27T14:18:54.184Z,4.38
2023-09-27T14:21:21.915Z,4.00
2023-09-27T14:23:50.084Z,3.95
2023-09-27T14:26:20.365Z,4.53
2023-09-27T14:28:48.029Z,4.18
2023-09-27T14:31:18.027Z,4.20
2023-09-27T14:33:45.728Z,3.78
2023-09-27T14:36:13.483Z,4.05
2023-09-27T14:41:11.360Z,4.43
2023-09-27T14:43:40.216Z,4.20
2023-09-27T14:46:12.115Z,4.55
2023-09-27T14:48:40.446Z,4.50
2023-09-27T14:51:12.951Z,4.90
2023-09-27T14:53:42.340Z,4.32
2023-09-27T14:56:10.880Z,5.00
2023-09-27T14:58:38.577Z,4.68
2023-09-27T15:01:06.250Z,4.28
2023-09-27T15:03:34.516Z,4.95
2023-09-27T15:06:06.829Z,4.50
2023-09-27T15:08:34.936Z,4.30
2023-09-27T15:11:04.316Z,4.85
2023-09-27T15:13:32.703Z,4.15
2023-09-27T15:16:02.310Z,4.10
2023-09-27T15:18:30.639Z,4.78
2023-09-27T15:20:58.172Z,3.90
2023-09-27T15:23:26.677Z,4.72
2023-09-27T15:25:54.176Z,4.15
2023-09-27T15:28:21.636Z,4.03
2023-09-27T15:30:49.286Z,4.22
2023-09-27T15:33:16.801Z,4.28
2023-09-27T15:35:57.445Z,4.43
2023-09-27T15:38:28.135Z,4.15
2023-09-27T15:40:56.078Z,4.05
2023-09-27T15:46:04.095Z,4.10
2023-09-27T15:48:34.895Z,3.97
2023-09-27T15:51:11.578Z,3.63
2023-09-27T15:53:39.634Z,4.30
2023-09-27T15:56:08.852Z,4.40
2023-09-27T15:58:36.507Z,4.45
2023-09-27T16:01:05.347Z,4.25
2023-09-27T16:03:33.462Z,4.68
2023-09-27T16:06:03.719Z,4.13
2023-09-27T16:08:33.278Z,4.28
2023-09-27T16:11:02.306Z,4.13
2023-09-27T16:13:29.842Z,4.28
2023-09-27T16:15:57.582Z,4.40
2023-09-27T16:18:24.958Z,4.53
2023-09-27T16:20:52.709Z,3.92
2023-09-27T16:23:20.229Z,4.32
2023-09-27T16:25:48.066Z,3.92
2023-09-27T16:28:16.627Z,4.05
2023-09-27T16:30:44.421Z,3.67
2023-09-27T16:33:13.219Z,3.90
2023-09-27T16:35:41.344Z,3.80
2023-09-27T16:38:10.723Z,3.90
2023-09-27T16:40:40.178Z,4.03
2023-09-27T16:43:07.784Z,4.22
2023-09-27T16:45:37.826Z,4.38
2023-09-27T16:48:05.754Z,3.95
2023-09-27T16:50:33.247Z,4.20
2023-09-27T16:53:00.721Z,4.10
2023-09-27T16:55:28.320Z,3.58
2023-09-27T16:57:55.885Z,4.10
2023-09-27T17:00:24.536Z,4.22
2023-09-27T17:02:57.100Z,3.75
2023-09-27T17:05:27.850Z,4.97
2023-09-27T17:07:55.753Z,4.47
2023-09-27T17:10:23.881Z,5.38
2023-09-27T17:15:20.895Z,6.05
2023-09-27T17:17:48.446Z,4.35
2023-09-27T17:20:16.169Z,4.30
2023-09-27T17:22:44.154Z,4.25
2023-09-27T17:25:12.499Z,4.05
2023-09-27T17:30:08.890Z,3.65
2023-09-27T17:32:38.883Z,3.55
2023-09-27T17:35:07.295Z,3.83
2023-09-27T17:37:35.756Z,4.20
2023-09-27T17:40:10.466Z,3.50
2023-09-27T17:42:39.208Z,4.00
2023-09-27T17:45:09.391Z,4.07
2023-09-27T17:47:37.378Z,3.67
2023-09-27T17:50:05.130Z,3.65
2023-09-27T17:52:32.603Z,3.63
2023-09-27T17:54:59.921Z,4.15
2023-09-27T17:57:27.207Z,3.80
2023-09-27T17:59:54.591Z,4.07
2023-09-27T18:02:21.993Z,3.85
2023-09-27T18:04:49.434Z,3.88
2023-09-27T18:07:18.110Z,3.70
2023-09-27T18:09:45.454Z,4.03
2023-09-27T18:12:13.374Z,3.50
2023-09-27T18:14:40.771Z,3.88
2023-09-27T18:17:08.392Z,3.88
2023-09-27T18:19:35.696Z,4.18
2023-09-27T18:22:03.634Z,4.32
2023-09-27T18:24:31.008Z,3.60
2023-09-27T18:26:58.844Z,3.45
2023-09-27T18:29:26.345Z,3.70
2023-09-27T18:34:20.937Z,3.42
2023-09-27T18:36:49.424Z,4.00
2023-09-27T18:41:44.462Z,4.00
2023-09-27T18:44:12.964Z,3.33
2023-09-27T18:46:41.946Z,3.47
2023-09-27T18:49:09.471Z,3.75
2023-09-27T18:51:36.938Z,4.30
2023-09-27T18:54:05.069Z,4.40
2023-09-27T18:56:32.708Z,3.88
2023-09-27T18:59:00.126Z,3.70
2023-09-27T19:01:28.741Z,4.25
2023-09-27T19:03:56.461Z,3.70
2023-09-27T19:06:25.219Z,4.20
2023-09-27T19:08:55.073Z,3.92
2023-09-27T19:11:22.660Z,4.35
2023-09-27T19:13:50.385Z,4.13
2023-09-27T19:16:17.820Z,3.70
2023-09-27T19:18:45.507Z,4.47
2023-09-27T19:21:13.471Z,4.90
2023-09-27T19:23:41.537Z,4.80
2023-09-27T19:26:13.192Z,4.25
2023-09-27T19:28:41.560Z,4.00
2023-09-27T19:31:10.071Z,3.75
2023-09-27T19:33:42.780Z,4.43
2023-09-27T19:36:21.120Z,4.68
2023-09-27T19:38:49.500Z,4.18
2023-09-27T19:41:16.998Z,3.70
2023-09-27T19:43:45.465Z,4.68
2023-09-27T19:48:45.308Z,4.90
2023-09-27T19:51:23.680Z,4.88
2023-09-27T19:53:53.068Z,4.88
2023-09-27T19:56:22.465Z,4.45
2023-09-27T19:58:50.280Z,4.78
2023-09-27T20:01:38.414Z,4.93
2023-09-27T20:04:06.177Z,4.63
2023-09-27T20:06:37.617Z,4.85
2023-09-27T20:09:05.059Z,4.95
2023-09-27T20:11:32.435Z,4.85
2023-09-27T20:14:00.064Z,5.13
2023-09-27T20:16:28.873Z,4.60
2023-09-27T20:18:56.233Z,4.75
2023-09-27T20:21:23.586Z,4.68
2023-09-27T20:23:50.920Z,5.28
2023-09-27T20:26:18.247Z,4.53
2023-09-27T20:28:45.714Z,4.72
2023-09-27T20:31:15.067Z,4.88
2023-09-27T20:33:42.445Z,4.68
2023-09-27T20:36:13.833Z,4.80
2023-09-27T20:38:41.705Z,4.35
2023-09-27T20:41:12.375Z,4.85
2023-09-27T20:43:39.787Z,5.15
2023-09-27T20:46:14.858Z,4.32
2023-09-27T20:48:42.441Z,4.35
2023-09-27T20:51:10.902Z,4.47
2023-09-27T20:53:38.560Z,3.85
2023-09-27T20:56:06.943Z,4.15
2023-09-27T20:58:35.055Z,4.53
2023-09-27T21:01:07.926Z,4.85
2023-09-27T21:03:36.577Z,4.97
2023-09-27T21:08:33.263Z,5.20
2023-09-27T21:11:00.582Z,5.22
2023-09-27T21:13:28.398Z,4.93
2023-09-27T21:15:55.778Z,4.88
2023-09-27T21:18:23.163Z,4.70
2023-09-27T21:20:50.469Z,4.78
2023-09-27T21:23:17.851Z,5.55
2023-09-27T21:25:45.145Z,4.60
2023-09-27T21:28:12.481Z,5.18
2023-09-27T21:30:39.773Z,5.18
2023-09-27T21:33:07.064Z,5.32
2023-09-27T21:35:34.487Z,5.18
2023-09-27T21:38:02.328Z,5.22
2023-09-27T21:40:29.648Z,5.18
2023-09-27T21:42:58.383Z,4.25
2023-09-27T21:45:25.706Z,4.65
2023-09-27T21:47:53.056Z,5.47
2023-09-27T21:50:20.396Z,5.40
2023-09-27T21:52:47.697Z,6.05
2023-09-27T21:55:15.071Z,5.28
2023-09-27T21:57:43.017Z,5.03
2023-09-27T22:00:20.876Z,5.40
2023-09-27T22:02:48.899Z,5.53
2023-09-27T22:05:16.393Z,5.32
2023-09-27T22:07:45.427Z,4.97
2023-09-27T22:10:12.836Z,4.97
2023-09-27T22:12:40.410Z,4.60
2023-09-27T22:15:10.655Z,5.45
2023-09-27T22:17:39.065Z,5.70
2023-09-27T22:20:15.689Z,4.78
2023-09-27T22:22:44.802Z,5.28
2023-09-27T22:25:14.940Z,5.50
2023-09-27T22:27:50.241Z,5.30
2023-09-27T22:30:17.524Z,5.50
2023-09-27T22:32:46.256Z,5.03
2023-09-27T22:35:23.518Z,5.25
2023-09-27T22:37:51.624Z,5.13
2023-09-27T22:40:21.145Z,4.97
2023-09-27T22:42:50.345Z,5.55
2023-09-27T22:45:29.157Z,4.90
2023-09-27T22:48:00.938Z,5.65
2023-09-27T22:50:31.924Z,5.30
2023-09-27T22:52:59.613Z,6.00
2023-09-27T22:55:30.277Z,6.55
2023-09-27T22:57:57.755Z,5.38
2023-09-27T23:00:26.318Z,5.85
2023-09-27T23:02:56.625Z,4.97
2023-09-27T23:05:34.201Z,5.38
2023-09-27T23:08:13.245Z,5.68
2023-09-27T23:10:41.337Z,4.68
2023-09-27T23:13:29.705Z,6.18
2023-09-27T23:15:58.488Z,5.30
2023-09-27T23:18:28.749Z,5.07
2023-09-27T23:21:00.312Z,5.50
2023-09-27T23:23:37.285Z,5.45
2023-09-27T23:26:04.622Z,5.80
2023-09-27T23:28:41.391Z,6.03
2023-09-27T23:31:10.002Z,5.43
2023-09-27T23:33:42.789Z,5.50
2023-09-27T23:36:25.095Z,4.97
2023-09-27T23:38:59.519Z,5.10
2023-09-27T23:41:31.760Z,5.53
2023-09-27T23:44:09.857Z,5.50
2023-09-27T23:46:41.049Z,5.20
2023-09-27T23:49:17.057Z,5.35
2023-09-27T23:51:44.483Z,5.15
2023-09-27T23:54:11.791Z,5.60
2023-09-27T23:56:39.947Z,6.13
2023-09-27T23:59:20.681Z,8.02
